sensor_id;sensor_type;location;lat;lon;timestamp;temperature;humidity
17740;DHT22;8990;33.226;-97.150;2022-12-05T00:00:14;13.30;99.90
17740;DHT22;8990;33.226;-97.150;2022-12-05T00:02:46;13.30;99.90
17740;DHT22;8990;33.226;-97.150;2022-12-05T00:05:15;13.30;99.90
17740;DHT22;8990;33.226;-97.150;2022-12-05T00:07:45;13.30;99.90
17740;DHT22;8990;33.226;-97.150;2022-12-05T00:10:15;13.30;99.90
17740;DHT22;8990;33.226;-97.150;2022-12-05T00:12:45;13.30;99.90
17740;DHT22;8990;33.226;-97.150;2022-12-05T00:15:15;13.30;99.90
17740;DHT22;8990;33.226;-97.150;2022-12-05T00:17:47;13.30;99.90
17740;DHT22;8990;33.226;-97.150;2022-12-05T00:20:17;13.40;99.90
17740;DHT22;8990;33.226;-97.150;2022-12-05T00:22:48;13.30;99.90
17740;DHT22;8990;33.226;-97.150;2022-12-05T00:25:17;13.30;99.90
17740;DHT22;8990;33.226;-97.150;2022-12-05T00:27:46;13.30;99.90
17740;DHT22;8990;33.226;-97.150;2022-12-05T00:30:17;13.30;99.90
17740;DHT22;8990;33.226;-97.150;2022-12-05T00:32:48;13.30;99.90
17740;DHT22;8990;33.226;-97.150;2022-12-05T00:35:19;13.30;99.90
17740;DHT22;8990;33.226;-97.150;2022-12-05T00:37:48;13.20;99.90
17740;DHT22;8990;33.226;-97.150;2022-12-05T00:40:18;13.20;99.90
17740;DHT22;8990;33.226;-97.150;2022-12-05T00:42:48;13.20;99.90
17740;DHT22;8990;33.226;-97.150;2022-12-05T00:45:18;13.20;99.90
17740;DHT22;8990;33.226;-97.150;2022-12-05T00:47:49;13.10;99.90
17740;DHT22;8990;33.226;-97.150;2022-12-05T00:50:19;13.10;99.90
17740;DHT22;8990;33.226;-97.150;2022-12-05T00:52:49;13.10;99.90
17740;DHT22;8990;33.226;-97.150;2022-12-05T00:55:19;13.20;99.90
17740;DHT22;8990;33.226;-97.150;2022-12-05T00:57:48;13.10;99.90
17740;DHT22;8990;33.226;-97.150;2022-12-05T01:00:18;13.10;99.90
17740;DHT22;8990;33.226;-97.150;2022-12-05T01:02:50;13.00;99.90
17740;DHT22;8990;33.226;-97.150;2022-12-05T01:05:19;13.00;99.90
17740;DHT22;8990;33.226;-97.150;2022-12-05T01:07:49;13.00;99.90
17740;DHT22;8990;33.226;-97.150;2022-12-05T01:10:18;12.90;99.90
17740;DHT22;8990;33.226;-97.150;2022-12-05T01:12:48;12.90;99.90
17740;DHT22;8990;33.226;-97.150;2022-12-05T01:15:17;12.90;99.90
17740;DHT22;8990;33.226;-97.150;2022-12-05T01:17:49;12.80;99.90
17740;DHT22;8990;33.226;-97.150;2022-12-05T01:20:19;12.80;99.90
17740;DHT22;8990;33.226;-97.150;2022-12-05T01:22:50;12.80;99.90
17740;DHT22;8990;33.226;-97.150;2022-12-05T01:25:19;12.70;99.90
17740;DHT22;8990;33.226;-97.150;2022-12-05T01:27:49;12.70;99.90
17740;DHT22;8990;33.226;-97.150;2022-12-05T01:30:19;12.60;99.90
17740;DHT22;8990;33.226;-97.150;2022-12-05T01:32:50;12.60;99.90
17740;DHT22;8990;33.226;-97.150;2022-12-05T01:35:20;12.60;99.90
17740;DHT22;8990;33.226;-97.150;2022-12-05T01:37:51;12.50;99.90
17740;DHT22;8990;33.226;-97.150;2022-12-05T01:40:21;12.50;99.90
17740;DHT22;8990;33.226;-97.150;2022-12-05T01:42:52;12.40;99.90
17740;DHT22;8990;33.226;-97.150;2022-12-05T01:45:25;12.40;99.90
17740;DHT22;8990;33.226;-97.150;2022-12-05T01:48:04;12.40;99.90
17740;DHT22;8990;33.226;-97.150;2022-12-05T01:50:35;12.30;99.90
17740;DHT22;8990;33.226;-97.150;2022-12-05T01:53:05;12.30;99.90
17740;DHT22;8990;33.226;-97.150;2022-12-05T01:55:35;12.20;99.90
17740;DHT22;8990;33.226;-97.150;2022-12-05T01:58:06;12.20;99.90
17740;DHT22;8990;33.226;-97.150;2022-12-05T02:00:41;12.20;99.90
17740;DHT22;8990;33.226;-97.150;2022-12-05T02:03:16;12.20;99.90
17740;DHT22;8990;33.226;-97.150;2022-12-05T02:05:49;12.20;99.90
17740;DHT22;8990;33.226;-97.150;2022-12-05T02:08:19;12.20;99.90
17740;DHT22;8990;33.226;-97.150;2022-12-05T02:10:51;12.10;99.90
17740;DHT22;8990;33.226;-97.150;2022-12-05T02:13:39;12.00;99.90
17740;DHT22;8990;33.226;-97.150;2022-12-05T02:16:16;12.00;99.90
17740;DHT22;8990;33.226;-97.150;2022-12-05T02:18:57;11.90;99.90
17740;DHT22;8990;33.226;-97.150;2022-12-05T02:24:54;11.80;99.90
17740;DHT22;8990;33.226;-97.150;2022-12-05T02:27:43;11.80;99.90
17740;DHT22;8990;33.226;-97.150;2022-12-05T02:30:20;11.80;99.90
17740;DHT22;8990;33.226;-97.150;2022-12-05T02:33:00;11.70;99.90
17740;DHT22;8990;33.226;-97.150;2022-12-05T02:50:07;11.60;99.90
17740;DHT22;8990;33.226;-97.150;2022-12-05T02:52:39;11.50;99.90
17740;DHT22;8990;33.226;-97.150;2022-12-05T02:55:09;11.50;99.90
17740;DHT22;8990;33.226;-97.150;2022-12-05T02:57:38;11.60;99.90
17740;DHT22;8990;33.226;-97.150;2022-12-05T03:00:12;11.60;99.90
17740;DHT22;8990;33.226;-97.150;2022-12-05T03:02:42;11.50;99.90
17740;DHT22;8990;33.226;-97.150;2022-12-05T03:05:20;11.60;99.90
17740;DHT22;8990;33.226;-97.150;2022-12-05T03:07:53;11.60;99.90
17740;DHT22;8990;33.226;-97.150;2022-12-05T03:10:26;11.60;99.90
17740;DHT22;8990;33.226;-97.150;2022-12-05T03:13:02;11.60;99.90
17740;DHT22;8990;33.226;-97.150;2022-12-05T03:15:36;11.70;99.90
17740;DHT22;8990;33.226;-97.150;2022-12-05T03:18:11;11.60;99.90
17740;DHT22;8990;33.226;-97.150;2022-12-05T03:20:48;11.70;99.90
17740;DHT22;8990;33.226;-97.150;2022-12-05T03:23:22;11.70;99.90
17740;DHT22;8990;33.226;-97.150;2022-12-05T03:25:57;11.70;99.90
17740;DHT22;8990;33.226;-97.150;2022-12-05T03:28:33;11.70;99.90
17740;DHT22;8990;33.226;-97.150;2022-12-05T03:31:09;11.70;99.90
17740;DHT22;8990;33.226;-97.150;2022-12-05T03:33:44;11.70;99.90
17740;DHT22;8990;33.226;-97.150;2022-12-05T03:36:17;11.70;99.90
17740;DHT22;8990;33.226;-97.150;2022-12-05T03:38:51;11.70;99.90
17740;DHT22;8990;33.226;-97.150;2022-12-05T03:41:24;11.70;99.90
17740;DHT22;8990;33.226;-97.150;2022-12-05T03:44:02;11.60;99.90
17740;DHT22;8990;33.226;-97.150;2022-12-05T03:46:38;11.70;99.90
17740;DHT22;8990;33.226;-97.150;2022-12-05T03:49:11;11.70;99.90
17740;DHT22;8990;33.226;-97.150;2022-12-05T03:51:46;11.70;99.90
17740;DHT22;8990;33.226;-97.150;2022-12-05T03:54:21;11.70;99.90
17740;DHT22;8990;33.226;-97.150;2022-12-05T03:56:55;11.70;99.90
17740;DHT22;8990;33.226;-97.150;2022-12-05T03:59:31;11.70;99.90
17740;DHT22;8990;33.226;-97.150;2022-12-05T04:02:12;11.80;99.90
17740;DHT22;8990;33.226;-97.150;2022-12-05T04:04:47;11.70;99.90
17740;DHT22;8990;33.226;-97.150;2022-12-05T04:07:22;11.70;99.90
17740;DHT22;8990;33.226;-97.150;2022-12-05T04:09:56;11.70;99.90
17740;DHT22;8990;33.226;-97.150;2022-12-05T04:12:29;11.70;99.90
17740;DHT22;8990;33.226;-97.150;2022-12-05T04:15:03;11.70;99.90
17740;DHT22;8990;33.226;-97.150;2022-12-05T04:17:39;11.70;99.90
17740;DHT22;8990;33.226;-97.150;2022-12-05T04:20:10;11.70;99.90
17740;DHT22;8990;33.226;-97.150;2022-12-05T04:22:59;11.70;99.90
17740;DHT22;8990;33.226;-97.150;2022-12-05T04:25:33;11.70;99.90
17740;DHT22;8990;33.226;-97.150;2022-12-05T04:28:19;11.70;99.90
17740;DHT22;8990;33.226;-97.150;2022-12-05T04:30:57;11.70;99.90
17740;DHT22;8990;33.226;-97.150;2022-12-05T04:33:36;11.70;99.90
17740;DHT22;8990;33.226;-97.150;2022-12-05T04:36:11;11.80;99.90
17740;DHT22;8990;33.226;-97.150;2022-12-05T04:38:48;11.80;99.90
17740;DHT22;8990;33.226;-97.150;2022-12-05T04:41:23;11.70;99.90
17740;DHT22;8990;33.226;-97.150;2022-12-05T04:43:55;11.60;99.90
17740;DHT22;8990;33.226;-97.150;2022-12-05T04:46:27;11.60;99.90
17740;DHT22;8990;33.226;-97.150;2022-12-05T04:48:59;11.60;99.90
17740;DHT22;8990;33.226;-97.150;2022-12-05T04:51:30;11.70;99.90
17740;DHT22;8990;33.226;-97.150;2022-12-05T04:54:08;11.80;99.90
17740;DHT22;8990;33.226;-97.150;2022-12-05T04:56:41;11.70;99.90
17740;DHT22;8990;33.226;-97.150;2022-12-05T04:59:12;11.60;99.90
17740;DHT22;8990;33.226;-97.150;2022-12-05T05:01:44;11.70;99.90
17740;DHT22;8990;33.226;-97.150;2022-12-05T05:04:20;11.70;99.90
17740;DHT22;8990;33.226;-97.150;2022-12-05T05:06:51;11.80;99.90
17740;DHT22;8990;33.226;-97.150;2022-12-05T05:09:23;11.80;99.90
17740;DHT22;8990;33.226;-97.150;2022-12-05T05:11:53;11.70;99.90
17740;DHT22;8990;33.226;-97.150;2022-12-05T05:14:23;11.70;99.90
17740;DHT22;8990;33.226;-97.150;2022-12-05T05:16:53;11.80;99.90
17740;DHT22;8990;33.226;-97.150;2022-12-05T05:19:23;11.80;99.90
17740;DHT22;8990;33.226;-97.150;2022-12-05T05:21:52;11.80;99.90
17740;DHT22;8990;33.226;-97.150;2022-12-05T05:24:23;11.80;99.90
17740;DHT22;8990;33.226;-97.150;2022-12-05T05:26:53;11.80;99.90
17740;DHT22;8990;33.226;-97.150;2022-12-05T05:29:23;11.90;99.90
17740;DHT22;8990;33.226;-97.150;2022-12-05T05:31:52;11.90;99.90
17740;DHT22;8990;33.226;-97.150;2022-12-05T05:34:22;11.80;99.90
17740;DHT22;8990;33.226;-97.150;2022-12-05T05:36:54;11.80;99.90
17740;DHT22;8990;33.226;-97.150;2022-12-05T05:39:25;11.80;99.90
17740;DHT22;8990;33.226;-97.150;2022-12-05T05:41:55;11.90;99.90
17740;DHT22;8990;33.226;-97.150;2022-12-05T05:44:26;11.90;99.90
17740;DHT22;8990;33.226;-97.150;2022-12-05T05:46:55;11.90;99.90
17740;DHT22;8990;33.226;-97.150;2022-12-05T05:49:25;11.90;99.90
17740;DHT22;8990;33.226;-97.150;2022-12-05T05:51:54;11.80;99.90
17740;DHT22;8990;33.226;-97.150;2022-12-05T05:54:25;11.90;99.90
17740;DHT22;8990;33.226;-97.150;2022-12-05T05:56:54;11.90;99.90
17740;DHT22;8990;33.226;-97.150;2022-12-05T05:59:25;11.90;99.90
17740;DHT22;8990;33.226;-97.150;2022-12-05T06:01:54;11.90;99.90
17740;DHT22;8990;33.226;-97.150;2022-12-05T06:04:23;11.90;99.90
17740;DHT22;8990;33.226;-97.150;2022-12-05T06:06:53;11.80;99.90
17740;DHT22;8990;33.226;-97.150;2022-12-05T06:09:25;11.80;99.90
17740;DHT22;8990;33.226;-97.150;2022-12-05T06:11:55;11.80;99.90
17740;DHT22;8990;33.226;-97.150;2022-12-05T06:14:25;11.90;99.90
17740;DHT22;8990;33.226;-97.150;2022-12-05T06:16:54;11.90;99.90
17740;DHT22;8990;33.226;-97.150;2022-12-05T06:19:25;11.90;99.90
17740;DHT22;8990;33.226;-97.150;2022-12-05T06:21:54;11.90;99.90
17740;DHT22;8990;33.226;-97.150;2022-12-05T06:24:26;11.90;99.90
17740;DHT22;8990;33.226;-97.150;2022-12-05T06:26:55;12.00;99.90
17740;DHT22;8990;33.226;-97.150;2022-12-05T06:29:26;11.90;99.90
17740;DHT22;8990;33.226;-97.150;2022-12-05T06:31:55;12.00;99.90
17740;DHT22;8990;33.226;-97.150;2022-12-05T06:34:25;11.90;99.90
17740;DHT22;8990;33.226;-97.150;2022-12-05T06:36:54;11.90;99.90
17740;DHT22;8990;33.226;-97.150;2022-12-05T06:39:25;11.90;99.90
17740;DHT22;8990;33.226;-97.150;2022-12-05T06:41:54;12.00;99.90
17740;DHT22;8990;33.226;-97.150;2022-12-05T06:44:25;11.90;99.90
17740;DHT22;8990;33.226;-97.150;2022-12-05T06:46:55;11.90;99.90
17740;DHT22;8990;33.226;-97.150;2022-12-05T06:49:25;12.00;99.90
17740;DHT22;8990;33.226;-97.150;2022-12-05T06:51:58;12.00;99.90
17740;DHT22;8990;33.226;-97.150;2022-12-05T06:54:30;12.00;99.90
17740;DHT22;8990;33.226;-97.150;2022-12-05T06:57:00;12.00;99.90
17740;DHT22;8990;33.226;-97.150;2022-12-05T06:59:30;12.00;99.90
17740;DHT22;8990;33.226;-97.150;2022-12-05T07:01:59;12.00;99.90
17740;DHT22;8990;33.226;-97.150;2022-12-05T07:04:27;12.00;99.90
17740;DHT22;8990;33.226;-97.150;2022-12-05T07:06:57;12.00;99.90
17740;DHT22;8990;33.226;-97.150;2022-12-05T07:09:29;12.00;99.90
17740;DHT22;8990;33.226;-97.150;2022-12-05T07:12:28;12.00;99.90
17740;DHT22;8990;33.226;-97.150;2022-12-05T07:14:59;12.00;99.90
17740;DHT22;8990;33.226;-97.150;2022-12-05T07:17:28;12.00;99.90
17740;DHT22;8990;33.226;-97.150;2022-12-05T07:19:59;12.00;99.90
17740;DHT22;8990;33.226;-97.150;2022-12-05T07:22:27;12.00;99.90
17740;DHT22;8990;33.226;-97.150;2022-12-05T07:24:57;11.90;99.90
17740;DHT22;8990;33.226;-97.150;2022-12-05T07:27:27;11.90;99.90
17740;DHT22;8990;33.226;-97.150;2022-12-05T07:29:58;11.90;99.90
17740;DHT22;8990;33.226;-97.150;2022-12-05T07:32:29;12.00;99.90
17740;DHT22;8990;33.226;-97.150;2022-12-05T07:35:00;12.00;99.90
17740;DHT22;8990;33.226;-97.150;2022-12-05T07:37:29;12.00;99.90
17740;DHT22;8990;33.226;-97.150;2022-12-05T07:39:59;12.00;99.90
17740;DHT22;8990;33.226;-97.150;2022-12-05T07:42:30;12.00;99.90
17740;DHT22;8990;33.226;-97.150;2022-12-05T07:45:01;12.00;99.90
17740;DHT22;8990;33.226;-97.150;2022-12-05T07:47:31;12.00;99.90
17740;DHT22;8990;33.226;-97.150;2022-12-05T07:50:01;12.00;99.90
17740;DHT22;8990;33.226;-97.150;2022-12-05T07:52:30;12.00;99.90
17740;DHT22;8990;33.226;-97.150;2022-12-05T07:55:01;12.10;99.90
17740;DHT22;8990;33.226;-97.150;2022-12-05T07:57:33;12.10;99.90
17740;DHT22;8990;33.226;-97.150;2022-12-05T08:00:04;12.10;99.90
17740;DHT22;8990;33.226;-97.150;2022-12-05T08:02:39;12.10;99.90
17740;DHT22;8990;33.226;-97.150;2022-12-05T08:05:09;12.10;99.90
17740;DHT22;8990;33.226;-97.150;2022-12-05T08:07:39;12.20;99.90
17740;DHT22;8990;33.226;-97.150;2022-12-05T08:10:09;12.10;99.90
17740;DHT22;8990;33.226;-97.150;2022-12-05T08:12:40;12.10;99.90
17740;DHT22;8990;33.226;-97.150;2022-12-05T08:15:10;12.10;99.90
17740;DHT22;8990;33.226;-97.150;2022-12-05T08:17:39;12.20;99.90
17740;DHT22;8990;33.226;-97.150;2022-12-05T08:20:10;12.10;99.90
17740;DHT22;8990;33.226;-97.150;2022-12-05T08:22:41;12.20;99.90
17740;DHT22;8990;33.226;-97.150;2022-12-05T08:25:10;12.20;99.90
17740;DHT22;8990;33.226;-97.150;2022-12-05T08:27:41;12.20;99.90
17740;DHT22;8990;33.226;-97.150;2022-12-05T08:30:11;12.20;99.90
17740;DHT22;8990;33.226;-97.150;2022-12-05T08:32:41;12.20;99.90
17740;DHT22;8990;33.226;-97.150;2022-12-05T08:35:12;12.30;99.90
17740;DHT22;8990;33.226;-97.150;2022-12-05T08:37:41;12.30;99.90
17740;DHT22;8990;33.226;-97.150;2022-12-05T08:40:11;12.30;99.90
17740;DHT22;8990;33.226;-97.150;2022-12-05T08:42:43;12.30;99.90
17740;DHT22;8990;33.226;-97.150;2022-12-05T08:45:13;12.30;99.90
17740;DHT22;8990;33.226;-97.150;2022-12-05T08:47:43;12.30;99.90
17740;DHT22;8990;33.226;-97.150;2022-12-05T08:50:12;12.30;99.90
17740;DHT22;8990;33.226;-97.150;2022-12-05T08:52:41;12.30;99.90
17740;DHT22;8990;33.226;-97.150;2022-12-05T08:55:11;12.30;99.90
17740;DHT22;8990;33.226;-97.150;2022-12-05T08:57:42;12.30;99.90
17740;DHT22;8990;33.226;-97.150;2022-12-05T09:00:12;12.30;99.90
17740;DHT22;8990;33.226;-97.150;2022-12-05T09:02:41;12.30;99.90
17740;DHT22;8990;33.226;-97.150;2022-12-05T09:05:11;12.40;99.90
17740;DHT22;8990;33.226;-97.150;2022-12-05T09:07:40;12.30;99.90
17740;DHT22;8990;33.226;-97.150;2022-12-05T09:10:10;12.40;99.90
17740;DHT22;8990;33.226;-97.150;2022-12-05T09:12:42;12.40;99.90
17740;DHT22;8990;33.226;-97.150;2022-12-05T09:15:12;12.40;99.90
17740;DHT22;8990;33.226;-97.150;2022-12-05T09:17:40;12.40;99.90
17740;DHT22;8990;33.226;-97.150;2022-12-05T09:20:11;12.40;99.90
17740;DHT22;8990;33.226;-97.150;2022-12-05T09:22:41;12.40;99.90
17740;DHT22;8990;33.226;-97.150;2022-12-05T09:25:11;12.40;99.90
17740;DHT22;8990;33.226;-97.150;2022-12-05T09:27:42;12.50;99.90
17740;DHT22;8990;33.226;-97.150;2022-12-05T09:30:13;12.50;99.90
17740;DHT22;8990;33.226;-97.150;2022-12-05T09:32:43;12.40;99.90
17740;DHT22;8990;33.226;-97.150;2022-12-05T09:35:13;12.50;99.90
17740;DHT22;8990;33.226;-97.150;2022-12-05T09:37:42;12.40;99.90
17740;DHT22;8990;33.226;-97.150;2022-12-05T09:40:15;12.40;99.90
17740;DHT22;8990;33.226;-97.150;2022-12-05T09:42:55;12.40;99.90
17740;DHT22;8990;33.226;-97.150;2022-12-05T09:45:34;12.40;99.90
17740;DHT22;8990;33.226;-97.150;2022-12-05T09:48:08;12.40;99.90
17740;DHT22;8990;33.226;-97.150;2022-12-05T09:50:44;12.40;99.90
17740;DHT22;8990;33.226;-97.150;2022-12-05T09:53:23;12.40;99.90
17740;DHT22;8990;33.226;-97.150;2022-12-05T09:56:01;12.30;99.90
17740;DHT22;8990;33.226;-97.150;2022-12-05T09:58:43;12.30;99.90
17740;DHT22;8990;33.226;-97.150;2022-12-05T10:01:24;12.30;99.90
17740;DHT22;8990;33.226;-97.150;2022-12-05T10:04:09;12.30;99.90
17740;DHT22;8990;33.226;-97.150;2022-12-05T10:06:42;12.30;99.90
17740;DHT22;8990;33.226;-97.150;2022-12-05T10:09:28;12.30;99.90
17740;DHT22;8990;33.226;-97.150;2022-12-05T10:12:04;12.30;99.90
17740;DHT22;8990;33.226;-97.150;2022-12-05T10:14:48;12.40;99.90
17740;DHT22;8990;33.226;-97.150;2022-12-05T10:17:26;12.40;99.90
17740;DHT22;8990;33.226;-97.150;2022-12-05T10:20:00;12.40;99.90
17740;DHT22;8990;33.226;-97.150;2022-12-05T10:22:38;12.40;99.90
17740;DHT22;8990;33.226;-97.150;2022-12-05T10:25:11;12.40;99.90
17740;DHT22;8990;33.226;-97.150;2022-12-05T10:27:44;12.50;99.90
17740;DHT22;8990;33.226;-97.150;2022-12-05T10:30:18;12.50;99.90
17740;DHT22;8990;33.226;-97.150;2022-12-05T10:32:52;12.60;99.90
17740;DHT22;8990;33.226;-97.150;2022-12-05T10:35:24;12.60;99.90
17740;DHT22;8990;33.226;-97.150;2022-12-05T10:37:56;12.60;99.90
17740;DHT22;8990;33.226;-97.150;2022-12-05T10:40:32;12.60;99.90
17740;DHT22;8990;33.226;-97.150;2022-12-05T10:43:04;12.70;99.90
17740;DHT22;8990;33.226;-97.150;2022-12-05T10:45:38;12.70;99.90
17740;DHT22;8990;33.226;-97.150;2022-12-05T10:48:12;12.70;99.90
17740;DHT22;8990;33.226;-97.150;2022-12-05T10:50:43;12.70;99.90
17740;DHT22;8990;33.226;-97.150;2022-12-05T10:53:17;12.80;99.90
17740;DHT22;8990;33.226;-97.150;2022-12-05T10:55:48;12.80;99.90
17740;DHT22;8990;33.226;-97.150;2022-12-05T10:58:19;12.80;99.90
17740;DHT22;8990;33.226;-97.150;2022-12-05T11:00:53;12.80;99.90
17740;DHT22;8990;33.226;-97.150;2022-12-05T11:03:26;12.90;99.90
17740;DHT22;8990;33.226;-97.150;2022-12-05T11:05:58;12.90;99.90
17740;DHT22;8990;33.226;-97.150;2022-12-05T11:08:30;12.90;99.90
17740;DHT22;8990;33.226;-97.150;2022-12-05T11:11:03;13.00;99.90
17740;DHT22;8990;33.226;-97.150;2022-12-05T11:13:33;13.00;99.90
17740;DHT22;8990;33.226;-97.150;2022-12-05T11:16:05;13.00;99.90
17740;DHT22;8990;33.226;-97.150;2022-12-05T11:18:34;13.10;99.90
17740;DHT22;8990;33.226;-97.150;2022-12-05T11:21:12;13.10;99.90
17740;DHT22;8990;33.226;-97.150;2022-12-05T11:23:43;13.20;99.90
17740;DHT22;8990;33.226;-97.150;2022-12-05T11:26:18;13.10;99.90
17740;DHT22;8990;33.226;-97.150;2022-12-05T11:28:48;13.20;99.90
17740;DHT22;8990;33.226;-97.150;2022-12-05T11:31:27;13.20;99.90
17740;DHT22;8990;33.226;-97.150;2022-12-05T11:34:04;13.20;99.90
17740;DHT22;8990;33.226;-97.150;2022-12-05T11:36:42;13.20;99.90
17740;DHT22;8990;33.226;-97.150;2022-12-05T11:39:12;13.30;99.90
17740;DHT22;8990;33.226;-97.150;2022-12-05T11:41:54;13.30;99.90
17740;DHT22;8990;33.226;-97.150;2022-12-05T11:47:37;13.30;99.90
17740;DHT22;8990;33.226;-97.150;2022-12-05T11:50:23;13.30;99.90
17740;DHT22;8990;33.226;-97.150;2022-12-05T11:53:05;13.40;99.90
17740;DHT22;8990;33.226;-97.150;2022-12-05T11:55:42;13.30;99.90
17740;DHT22;8990;33.226;-97.150;2022-12-05T11:58:31;13.40;99.90
17740;DHT22;8990;33.226;-97.150;2022-12-05T12:01:13;13.40;99.90
17740;DHT22;8990;33.226;-97.150;2022-12-05T12:04:01;13.40;99.90
17740;DHT22;8990;33.226;-97.150;2022-12-05T12:06:42;13.50;99.90
17740;DHT22;8990;33.226;-97.150;2022-12-05T12:09:24;13.50;99.90
17740;DHT22;8990;33.226;-97.150;2022-12-05T12:12:03;13.50;99.90
17740;DHT22;8990;33.226;-97.150;2022-12-05T12:14:45;13.60;99.90
17740;DHT22;8990;33.226;-97.150;2022-12-05T12:17:22;13.50;99.90
17740;DHT22;8990;33.226;-97.150;2022-12-05T12:20:24;13.60;99.90
17740;DHT22;8990;33.226;-97.150;2022-12-05T12:23:15;13.60;99.90
17740;DHT22;8990;33.226;-97.150;2022-12-05T12:26:07;13.60;99.90
17740;DHT22;8990;33.226;-97.150;2022-12-05T12:28:44;13.70;99.90
17740;DHT22;8990;33.226;-97.150;2022-12-05T12:31:34;13.60;99.90
17740;DHT22;8990;33.226;-97.150;2022-12-05T12:34:26;13.60;99.90
17740;DHT22;8990;33.226;-97.150;2022-12-05T12:37:02;13.60;99.90
17740;DHT22;8990;33.226;-97.150;2022-12-05T12:39:45;13.60;99.90
17740;DHT22;8990;33.226;-97.150;2022-12-05T12:42:23;13.70;99.90
17740;DHT22;8990;33.226;-97.150;2022-12-05T12:48:08;13.70;99.90
17740;DHT22;8990;33.226;-97.150;2022-12-05T12:50:41;13.70;99.90
17740;DHT22;8990;33.226;-97.150;2022-12-05T12:53:39;13.80;99.90
17740;DHT22;8990;33.226;-97.150;2022-12-05T12:56:19;13.80;99.90
17740;DHT22;8990;33.226;-97.150;2022-12-05T12:58:54;13.80;99.90
17740;DHT22;8990;33.226;-97.150;2022-12-05T13:01:29;13.80;99.90
17740;DHT22;8990;33.226;-97.150;2022-12-05T13:04:05;13.80;99.90
17740;DHT22;8990;33.226;-97.150;2022-12-05T13:06:42;13.80;99.90
17740;DHT22;8990;33.226;-97.150;2022-12-05T13:09:19;13.90;99.90
17740;DHT22;8990;33.226;-97.150;2022-12-05T13:11:51;13.90;99.90
17740;DHT22;8990;33.226;-97.150;2022-12-05T13:14:23;13.90;99.90
17740;DHT22;8990;33.226;-97.150;2022-12-05T13:16:54;13.90;99.90
17740;DHT22;8990;33.226;-97.150;2022-12-05T13:19:28;14.00;99.90
17740;DHT22;8990;33.226;-97.150;2022-12-05T13:22:05;14.00;99.90
17740;DHT22;8990;33.226;-97.150;2022-12-05T13:24:36;14.00;99.90
17740;DHT22;8990;33.226;-97.150;2022-12-05T13:27:12;14.00;99.90
17740;DHT22;8990;33.226;-97.150;2022-12-05T13:29:49;14.00;99.90
17740;DHT22;8990;33.226;-97.150;2022-12-05T13:32:27;14.10;99.90
17740;DHT22;8990;33.226;-97.150;2022-12-05T13:35:00;14.10;99.90
17740;DHT22;8990;33.226;-97.150;2022-12-05T13:37:30;14.10;99.90
17740;DHT22;8990;33.226;-97.150;2022-12-05T13:40:27;14.10;99.90
17740;DHT22;8990;33.226;-97.150;2022-12-05T13:43:18;14.10;99.90
17740;DHT22;8990;33.226;-97.150;2022-12-05T13:46:01;14.20;99.90
17740;DHT22;8990;33.226;-97.150;2022-12-05T13:48:35;14.20;99.90
17740;DHT22;8990;33.226;-97.150;2022-12-05T13:51:10;14.20;99.90
17740;DHT22;8990;33.226;-97.150;2022-12-05T13:53:46;14.30;99.90
17740;DHT22;8990;33.226;-97.150;2022-12-05T13:56:27;14.30;99.90
17740;DHT22;8990;33.226;-97.150;2022-12-05T14:02:51;14.40;99.90
17740;DHT22;8990;33.226;-97.150;2022-12-05T14:05:38;14.40;99.90
17740;DHT22;8990;33.226;-97.150;2022-12-05T14:11:14;14.40;99.90
17740;DHT22;8990;33.226;-97.150;2022-12-05T14:13:46;14.50;99.90
17740;DHT22;8990;33.226;-97.150;2022-12-05T14:16:47;14.50;99.90
17740;DHT22;8990;33.226;-97.150;2022-12-05T14:19:53;14.50;99.90
17740;DHT22;8990;33.226;-97.150;2022-12-05T14:22:47;14.60;99.90
17740;DHT22;8990;33.226;-97.150;2022-12-05T14:28:38;14.60;99.90
17740;DHT22;8990;33.226;-97.150;2022-12-05T14:31:25;14.60;99.90
17740;DHT22;8990;33.226;-97.150;2022-12-05T14:34:08;14.70;99.90
17740;DHT22;8990;33.226;-97.150;2022-12-05T14:36:52;14.70;99.90
17740;DHT22;8990;33.226;-97.150;2022-12-05T14:39:31;14.80;99.90
17740;DHT22;8990;33.226;-97.150;2022-12-05T14:42:06;14.80;99.90
17740;DHT22;8990;33.226;-97.150;2022-12-05T14:44:46;14.90;99.90
17740;DHT22;8990;33.226;-97.150;2022-12-05T14:47:21;14.90;99.90
17740;DHT22;8990;33.226;-97.150;2022-12-05T14:49:55;14.90;99.90
17740;DHT22;8990;33.226;-97.150;2022-12-05T14:52:29;15.00;99.90
17740;DHT22;8990;33.226;-97.150;2022-12-05T14:55:04;15.10;99.90
17740;DHT22;8990;33.226;-97.150;2022-12-05T14:57:43;15.20;99.90
17740;DHT22;8990;33.226;-97.150;2022-12-05T15:00:20;15.20;99.90
17740;DHT22;8990;33.226;-97.150;2022-12-05T15:02:53;15.20;99.90
17740;DHT22;8990;33.226;-97.150;2022-12-05T15:05:26;15.30;99.90
17740;DHT22;8990;33.226;-97.150;2022-12-05T15:07:59;15.40;99.90
17740;DHT22;8990;33.226;-97.150;2022-12-05T15:10:32;15.40;99.90
17740;DHT22;8990;33.226;-97.150;2022-12-05T15:13:04;15.50;99.90
17740;DHT22;8990;33.226;-97.150;2022-12-05T15:15:39;15.60;99.90
17740;DHT22;8990;33.226;-97.150;2022-12-05T15:18:20;15.80;99.90
17740;DHT22;8990;33.226;-97.150;2022-12-05T15:20:56;15.90;99.90
17740;DHT22;8990;33.226;-97.150;2022-12-05T15:23:39;16.00;99.90
17740;DHT22;8990;33.226;-97.150;2022-12-05T15:26:19;16.20;99.90
17740;DHT22;8990;33.226;-97.150;2022-12-05T15:29:01;16.20;99.90
17740;DHT22;8990;33.226;-97.150;2022-12-05T15:31:35;16.30;99.90
17740;DHT22;8990;33.226;-97.150;2022-12-05T15:34:14;16.50;99.90
17740;DHT22;8990;33.226;-97.150;2022-12-05T15:36:49;16.60;99.90
17740;DHT22;8990;33.226;-97.150;2022-12-05T15:39:22;16.60;99.90
17740;DHT22;8990;33.226;-97.150;2022-12-05T15:41:52;16.80;99.90
17740;DHT22;8990;33.226;-97.150;2022-12-05T15:44:26;16.90;99.90
17740;DHT22;8990;33.226;-97.150;2022-12-05T15:46:56;17.10;99.90
17740;DHT22;8990;33.226;-97.150;2022-12-05T15:49:28;17.10;99.90
17740;DHT22;8990;33.226;-97.150;2022-12-05T15:52:02;17.20;99.90
17740;DHT22;8990;33.226;-97.150;2022-12-05T15:54:37;17.30;99.90
17740;DHT22;8990;33.226;-97.150;2022-12-05T15:57:08;17.30;99.90
17740;DHT22;8990;33.226;-97.150;2022-12-05T15:59:45;17.40;99.90
17740;DHT22;8990;33.226;-97.150;2022-12-05T16:02:20;17.40;99.90
17740;DHT22;8990;33.226;-97.150;2022-12-05T16:04:56;17.50;99.90
17740;DHT22;8990;33.226;-97.150;2022-12-05T16:07:29;17.60;99.90
17740;DHT22;8990;33.226;-97.150;2022-12-05T16:10:00;17.70;99.90
17740;DHT22;8990;33.226;-97.150;2022-12-05T16:12:33;17.70;99.90
17740;DHT22;8990;33.226;-97.150;2022-12-05T16:15:09;17.70;99.90
17740;DHT22;8990;33.226;-97.150;2022-12-05T16:17:45;17.70;99.90
17740;DHT22;8990;33.226;-97.150;2022-12-05T16:20:28;17.80;99.90
17740;DHT22;8990;33.226;-97.150;2022-12-05T16:23:00;17.90;99.90
17740;DHT22;8990;33.226;-97.150;2022-12-05T16:25:32;17.90;99.90
17740;DHT22;8990;33.226;-97.150;2022-12-05T16:28:14;17.90;99.90
17740;DHT22;8990;33.226;-97.150;2022-12-05T16:30:56;17.90;99.90